sensor_id;sensor_type;location;lat;lon;timestamp;pressure;altitude;pressure_sealevel;temperature;humidity
56340;BME280;42243;42.644;23.366;2023-05-02T00:01:55;94869.94;;;13.66;61.61
56340;BME280;42243;42.644;23.366;2023-05-02T00:04:21;94866.31;;;13.67;61.50
56340;BME280;42243;42.644;23.366;2023-05-02T00:06:46;94828.00;;;13.28;62.04
56340;BME280;42243;42.644;23.366;2023-05-02T00:09:12;94832.88;;;13.31;61.78
56340;BME280;42243;42.644;23.366;2023-05-02T00:11:37;94878.03;;;13.65;61.82
56340;BME280;42243;42.644;23.366;2023-05-02T00:14:03;94807.53;;;13.11;62.01
56340;BME280;42243;42.644;23.366;2023-05-02T00:16:28;94875.03;;;13.54;62.43
56340;BME280;42243;42.644;23.366;2023-05-02T00:18:54;94877.06;;;13.52;62.45
56340;BME280;42243;42.644;23.366;2023-05-02T00:21:19;94857.78;;;13.40;62.83
56340;BME280;42243;42.644;23.366;2023-05-02T00:23:44;94882.69;;;13.56;62.57
56340;BME280;42243;42.644;23.366;2023-05-02T00:26:10;94827.25;;;13.20;62.44
56340;BME280;42243;42.644;23.366;2023-05-02T00:28:35;94838.31;;;13.22;62.71
56340;BME280;42243;42.644;23.366;2023-05-02T00:31:02;94871.13;;;13.25;63.58
56340;BME280;42243;42.644;23.366;2023-05-02T00:33:28;94870.31;;;13.25;63.36
56340;BME280;42243;42.644;23.366;2023-05-02T00:35:53;94728.16;;;12.20;63.90
56340;BME280;42243;42.644;23.366;2023-05-02T00:38:19;94838.59;;;13.01;63.62
56340;BME280;42243;42.644;23.366;2023-05-02T00:40:46;94827.41;;;12.67;64.22
56340;BME280;42243;42.644;23.366;2023-05-02T00:43:12;94775.22;;;12.34;64.65
56340;BME280;42243;42.644;23.366;2023-05-02T00:45:38;94906.63;;;13.01;65.30
56340;BME280;42243;42.644;23.366;2023-05-02T00:48:08;94904.00;;;13.01;65.48
56340;BME280;42243;42.644;23.366;2023-05-02T00:50:39;94897.78;;;13.02;65.55
56340;BME280;42243;42.644;23.366;2023-05-02T00:53:06;94899.97;;;13.05;65.45
56340;BME280;42243;42.644;23.366;2023-05-02T00:55:32;94814.19;;;12.49;65.76
56340;BME280;42243;42.644;23.366;2023-05-02T00:57:59;94781.66;;;12.18;66.11
56340;BME280;42243;42.644;23.366;2023-05-02T01:00:31;94865.47;;;12.70;66.18
56340;BME280;42243;42.644;23.366;2023-05-02T01:03:11;94885.72;;;12.94;66.18
56340;BME280;42243;42.644;23.366;2023-05-02T01:05:55;94908.84;;;12.97;66.16
56340;BME280;42243;42.644;23.366;2023-05-02T01:08:51;94899.44;;;12.90;66.73
56340;BME280;42243;42.644;23.366;2023-05-02T01:11:38;94900.63;;;12.94;66.67
56340;BME280;42243;42.644;23.366;2023-05-02T01:14:10;94899.97;;;13.05;66.24
56340;BME280;42243;42.644;23.366;2023-05-02T01:16:38;94856.63;;;12.57;66.99
56340;BME280;42243;42.644;23.366;2023-05-02T01:19:08;94907.06;;;12.85;67.22
56340;BME280;42243;42.644;23.366;2023-05-02T01:21:37;94898.44;;;12.77;67.46
56340;BME280;42243;42.644;23.366;2023-05-02T01:24:16;94866.09;;;12.52;67.43
56340;BME280;42243;42.644;23.366;2023-05-02T01:29:29;94839.56;;;12.41;67.27
56340;BME280;42243;42.644;23.366;2023-05-02T01:31:57;94894.00;;;12.85;67.00
56340;BME280;42243;42.644;23.366;2023-05-02T01:34:26;94855.63;;;12.52;67.30
56340;BME280;42243;42.644;23.366;2023-05-02T01:36:55;94803.38;;;12.25;67.05
56340;BME280;42243;42.644;23.366;2023-05-02T01:39:24;94895.75;;;12.97;66.69
56340;BME280;42243;42.644;23.366;2023-05-02T01:41:52;94904.44;;;12.98;66.51
56340;BME280;42243;42.644;23.366;2023-05-02T01:44:21;94907.84;;;12.98;66.34
56340;BME280;42243;42.644;23.366;2023-05-02T01:46:47;94848.75;;;12.77;66.06
56340;BME280;42243;42.644;23.366;2023-05-02T01:49:13;94827.03;;;12.57;66.04
56340;BME280;42243;42.644;23.366;2023-05-02T01:51:44;94850.78;;;12.62;66.27
56340;BME280;42243;42.644;23.366;2023-05-02T01:54:12;94913.06;;;13.05;66.13
56340;BME280;42243;42.644;23.366;2023-05-02T01:56:38;94919.94;;;12.93;66.65
56340;BME280;42243;42.644;23.366;2023-05-02T01:59:07;94881.69;;;11.58;71.46
56340;BME280;42243;42.644;23.366;2023-05-02T02:01:38;94901.53;;;11.46;73.08
56340;BME280;42243;42.644;23.366;2023-05-02T02:04:05;94896.28;;;11.39;73.45
56340;BME280;42243;42.644;23.366;2023-05-02T02:06:33;94902.13;;;11.41;73.96
56340;BME280;42243;42.644;23.366;2023-05-02T02:08:59;94902.16;;;11.55;73.04
56340;BME280;42243;42.644;23.366;2023-05-02T02:11:36;94888.09;;;11.56;72.55
56340;BME280;42243;42.644;23.366;2023-05-02T02:14:13;94897.72;;;11.55;72.64
56340;BME280;42243;42.644;23.366;2023-05-02T02:16:41;94837.69;;;11.00;73.72
56340;BME280;42243;42.644;23.366;2023-05-02T02:19:09;94868.63;;;10.97;74.44
56340;BME280;42243;42.644;23.366;2023-05-02T02:21:38;94860.28;;;10.80;75.19
56340;BME280;42243;42.644;23.366;2023-05-02T02:24:06;94897.28;;;11.45;73.88
56340;BME280;42243;42.644;23.366;2023-05-02T02:26:32;94853.88;;;11.31;72.65
56340;BME280;42243;42.644;23.366;2023-05-02T02:28:59;94910.63;;;11.70;72.44
56340;BME280;42243;42.644;23.366;2023-05-02T02:31:32;94879.69;;;11.74;71.90
56340;BME280;42243;42.644;23.366;2023-05-02T02:33:58;94893.41;;;11.89;71.38
56340;BME280;42243;42.644;23.366;2023-05-02T02:37:02;94895.03;;;12.03;70.90
56340;BME280;42243;42.644;23.366;2023-05-02T02:39:43;94897.66;;;12.10;70.48
56340;BME280;42243;42.644;23.366;2023-05-02T02:42:28;94889.41;;;12.13;69.86
56340;BME280;42243;42.644;23.366;2023-05-02T02:47:49;94811.41;;;11.77;69.35
56340;BME280;42243;42.644;23.366;2023-05-02T02:53:04;94883.41;;;12.13;69.71
56340;BME280;42243;42.644;23.366;2023-05-02T03:00:45;94909.91;;;12.10;70.00
56340;BME280;42243;42.644;23.366;2023-05-02T03:03:13;94896.44;;;12.06;70.13
56340;BME280;42243;42.644;23.366;2023-05-02T03:05:40;94911.53;;;12.11;70.29
56340;BME280;42243;42.644;23.366;2023-05-02T03:08:06;94836.28;;;11.59;70.32
56340;BME280;42243;42.644;23.366;2023-05-02T03:10:32;94830.03;;;11.47;70.56
56340;BME280;42243;42.644;23.366;2023-05-02T03:12:57;94912.72;;;12.01;70.28
56340;BME280;42243;42.644;23.366;2023-05-02T03:18:17;94931.44;;;12.12;70.18
56340;BME280;42243;42.644;23.366;2023-05-02T03:20:43;94931.03;;;12.15;69.86
56340;BME280;42243;42.644;23.366;2023-05-02T03:23:08;94934.88;;;12.19;69.98
56340;BME280;42243;42.644;23.366;2023-05-02T03:25:34;94918.16;;;12.07;70.11
56340;BME280;42243;42.644;23.366;2023-05-02T03:27:59;94901.47;;;11.94;70.01
56340;BME280;42243;42.644;23.366;2023-05-02T03:30:25;94863.22;;;11.67;70.04
56340;BME280;42243;42.644;23.366;2023-05-02T03:32:50;94873.06;;;11.71;70.10
56340;BME280;42243;42.644;23.366;2023-05-02T03:35:16;94946.53;;;12.23;69.74
56340;BME280;42243;42.644;23.366;2023-05-02T03:37:42;94902.03;;;11.90;70.10
56340;BME280;42243;42.644;23.366;2023-05-02T03:40:08;94945.31;;;12.26;69.74
56340;BME280;42243;42.644;23.366;2023-05-02T03:42:34;94915.13;;;11.96;70.19
56340;BME280;42243;42.644;23.366;2023-05-02T03:45:08;94942.66;;;11.99;70.90
56340;BME280;42243;42.644;23.366;2023-05-02T03:47:34;94945.28;;;11.92;71.00
56340;BME280;42243;42.644;23.366;2023-05-02T03:50:00;94937.59;;;11.84;71.08
56340;BME280;42243;42.644;23.366;2023-05-02T03:52:26;94942.88;;;11.97;71.11
56340;BME280;42243;42.644;23.366;2023-05-02T03:54:51;94906.63;;;11.74;70.97
56340;BME280;42243;42.644;23.366;2023-05-02T03:57:17;94901.97;;;11.70;71.21
56340;BME280;42243;42.644;23.366;2023-05-02T03:59:43;94932.34;;;11.77;71.50
56340;BME280;42243;42.644;23.366;2023-05-02T04:02:10;94919.88;;;11.73;71.41
56340;BME280;42243;42.644;23.366;2023-05-02T04:04:36;94946.03;;;11.86;71.45
56340;BME280;42243;42.644;23.366;2023-05-02T04:07:02;94879.19;;;11.37;71.70
56340;BME280;42243;42.644;23.366;2023-05-02T04:09:28;94927.91;;;11.71;71.41
56340;BME280;42243;42.644;23.366;2023-05-02T04:11:53;94935.97;;;11.83;71.44
56340;BME280;42243;42.644;23.366;2023-05-02T04:14:19;94890.06;;;11.47;71.70
56340;BME280;42243;42.644;23.366;2023-05-02T04:16:48;94840.19;;;11.15;71.78
56340;BME280;42243;42.644;23.366;2023-05-02T04:19:14;94919.47;;;11.76;71.18
56340;BME280;42243;42.644;23.366;2023-05-02T04:21:40;94933.56;;;11.81;71.46
56340;BME280;42243;42.644;23.366;2023-05-02T04:24:08;94913.84;;;11.72;70.60
56340;BME280;42243;42.644;23.366;2023-05-02T04:26:33;94938.78;;;11.81;70.43
56340;BME280;42243;42.644;23.366;2023-05-02T04:28:59;94947.63;;;11.87;70.44
56340;BME280;42243;42.644;23.366;2023-05-02T04:31:25;94922.69;;;11.71;70.84
56340;BME280;42243;42.644;23.366;2023-05-02T04:33:51;94907.78;;;11.58;70.77
56340;BME280;42243;42.644;23.366;2023-05-02T04:36:17;94813.66;;;11.05;70.20
56340;BME280;42243;42.644;23.366;2023-05-02T04:38:43;94786.69;;;10.85;69.92
56340;BME280;42243;42.644;23.366;2023-05-02T04:41:09;94854.72;;;11.45;69.21
56340;BME280;42243;42.644;23.366;2023-05-02T04:43:35;94939.03;;;12.00;68.79
56340;BME280;42243;42.644;23.366;2023-05-02T04:46:00;94888.53;;;11.73;68.13
56340;BME280;42243;42.644;23.366;2023-05-02T04:48:26;94946.31;;;12.05;68.17
56340;BME280;42243;42.644;23.366;2023-05-02T04:50:51;94918.38;;;11.98;67.81
56340;BME280;42243;42.644;23.366;2023-05-02T04:53:22;94897.47;;;11.98;66.99
56340;BME280;42243;42.644;23.366;2023-05-02T04:55:48;94937.69;;;12.31;66.79
56340;BME280;42243;42.644;23.366;2023-05-02T04:58:14;94958.63;;;12.57;66.22
56340;BME280;42243;42.644;23.366;2023-05-02T05:00:39;94941.72;;;12.73;65.37
56340;BME280;42243;42.644;23.366;2023-05-02T05:03:05;94969.66;;;13.06;64.53
56340;BME280;42243;42.644;23.366;2023-05-02T05:05:31;94970.63;;;13.18;64.44
56340;BME280;42243;42.644;23.366;2023-05-02T05:07:56;94950.44;;;13.26;63.89
56340;BME280;42243;42.644;23.366;2023-05-02T05:10:22;94931.97;;;13.07;63.70
56340;BME280;42243;42.644;23.366;2023-05-02T05:12:47;94933.75;;;13.27;62.74
56340;BME280;42243;42.644;23.366;2023-05-02T05:15:14;94941.66;;;13.07;63.50
56340;BME280;42243;42.644;23.366;2023-05-02T05:17:39;94953.06;;;13.26;63.05
56340;BME280;42243;42.644;23.366;2023-05-02T05:20:05;94963.88;;;13.62;62.41
56340;BME280;42243;42.644;23.366;2023-05-02T05:22:37;94968.88;;;13.71;61.87
56340;BME280;42243;42.644;23.366;2023-05-02T05:25:03;94963.66;;;13.64;61.64
56340;BME280;42243;42.644;23.366;2023-05-02T05:27:28;94950.97;;;13.61;61.22
56340;BME280;42243;42.644;23.366;2023-05-02T05:29:53;94945.16;;;13.59;61.03
56340;BME280;42243;42.644;23.366;2023-05-02T05:32:19;94968.41;;;13.80;60.95
56340;BME280;42243;42.644;23.366;2023-05-02T05:34:50;94946.25;;;13.83;60.17
56340;BME280;42243;42.644;23.366;2023-05-02T05:37:15;94949.75;;;13.63;60.51
56340;BME280;42243;42.644;23.366;2023-05-02T05:39:41;94972.50;;;13.70;61.15
56340;BME280;42243;42.644;23.366;2023-05-02T05:42:06;94927.38;;;13.68;61.13
56340;BME280;42243;42.644;23.366;2023-05-02T05:44:34;94984.63;;;14.02;61.51
56340;BME280;42243;42.644;23.366;2023-05-02T05:46:59;94915.16;;;13.55;61.24
56340;BME280;42243;42.644;23.366;2023-05-02T05:49:25;94944.94;;;13.99;60.49
56340;BME280;42243;42.644;23.366;2023-05-02T05:51:50;94919.78;;;13.91;59.22
56340;BME280;42243;42.644;23.366;2023-05-02T05:54:16;94920.97;;;13.95;60.16
56340;BME280;42243;42.644;23.366;2023-05-02T05:56:42;94943.50;;;14.35;59.33
56340;BME280;42243;42.644;23.366;2023-05-02T05:59:08;94866.66;;;14.09;58.52
56340;BME280;42243;42.644;23.366;2023-05-02T06:01:35;94952.84;;;14.81;57.50
56340;BME280;42243;42.644;23.366;2023-05-02T06:04:00;94975.16;;;15.15;56.94
56340;BME280;42243;42.644;23.366;2023-05-02T06:06:27;94945.69;;;15.50;55.34
56340;BME280;42243;42.644;23.366;2023-05-02T06:08:53;94981.00;;;17.06;50.70
56340;BME280;42243;42.644;23.366;2023-05-02T06:11:19;94898.91;;;19.47;44.33
56340;BME280;42243;42.644;23.366;2023-05-02T06:13:44;94974.50;;;23.26;37.56
56340;BME280;42243;42.644;23.366;2023-05-02T06:16:09;94958.28;;;24.53;35.08
56340;BME280;42243;42.644;23.366;2023-05-02T06:18:35;94946.31;;;27.05;30.58
56340;BME280;42243;42.644;23.366;2023-05-02T06:21:04;94928.28;;;28.35;28.45
56340;BME280;42243;42.644;23.366;2023-05-02T06:23:30;94961.44;;;29.92;26.04
56340;BME280;42243;42.644;23.366;2023-05-02T06:26:01;94954.53;;;31.31;24.07
56340;BME280;42243;42.644;23.366;2023-05-02T06:28:27;94955.75;;;33.03;22.22
56340;BME280;42243;42.644;23.366;2023-05-02T06:31:00;94962.28;;;33.02;21.56
56340;BME280;42243;42.644;23.366;2023-05-02T06:33:27;94940.50;;;33.78;20.72
56340;BME280;42243;42.644;23.366;2023-05-02T06:35:52;94949.97;;;35.62;19.63
56340;BME280;42243;42.644;23.366;2023-05-02T06:38:18;94945.88;;;36.00;18.25
56340;BME280;42243;42.644;23.366;2023-05-02T06:40:44;94946.03;;;36.07;18.48
56340;BME280;42243;42.644;23.366;2023-05-02T06:43:10;94931.16;;;36.01;18.17
56340;BME280;42243;42.644;23.366;2023-05-02T06:45:35;94918.22;;;37.73;17.31
56340;BME280;42243;42.644;23.366;2023-05-02T06:48:01;94886.75;;;37.99;16.23
56340;BME280;42243;42.644;23.366;2023-05-02T06:50:28;94952.88;;;36.72;17.40
56340;BME280;42243;42.644;23.366;2023-05-02T06:52:53;94943.69;;;36.76;18.05
56340;BME280;42243;42.644;23.366;2023-05-02T06:55:18;94919.03;;;38.00;17.56
56340;BME280;42243;42.644;23.366;2023-05-02T06:57:44;94948.44;;;36.44;17.80
56340;BME280;42243;42.644;23.366;2023-05-02T07:00:11;94951.22;;;35.96;17.31
56340;BME280;42243;42.644;23.366;2023-05-02T07:02:37;94932.78;;;36.21;17.84
56340;BME280;42243;42.644;23.366;2023-05-02T07:05:02;94910.09;;;40.24;14.28
56340;BME280;42243;42.644;23.366;2023-05-02T07:07:29;94869.56;;;35.85;17.10
56340;BME280;42243;42.644;23.366;2023-05-02T07:09:54;94947.91;;;32.56;19.27
56340;BME280;42243;42.644;23.366;2023-05-02T07:12:20;94909.69;;;34.31;18.97
56340;BME280;42243;42.644;23.366;2023-05-02T07:14:45;94943.34;;;38.39;15.75
56340;BME280;42243;42.644;23.366;2023-05-02T07:17:11;94891.78;;;41.84;13.26
56340;BME280;42243;42.644;23.366;2023-05-02T07:19:36;94942.59;;;41.35;13.64
56340;BME280;42243;42.644;23.366;2023-05-02T07:22:02;94948.13;;;41.71;13.39
56340;BME280;42243;42.644;23.366;2023-05-02T07:24:28;94947.81;;;43.08;12.12
56340;BME280;42243;42.644;23.366;2023-05-02T07:26:54;94913.34;;;43.07;12.25
56340;BME280;42243;42.644;23.366;2023-05-02T07:29:19;94914.00;;;42.33;13.03
56340;BME280;42243;42.644;23.366;2023-05-02T07:31:44;94920.63;;;42.43;12.88
56340;BME280;42243;42.644;23.366;2023-05-02T07:34:10;94918.47;;;43.01;12.04
56340;BME280;42243;42.644;23.366;2023-05-02T07:36:35;94920.81;;;44.49;11.37
56340;BME280;42243;42.644;23.366;2023-05-02T07:39:01;94927.94;;;44.77;11.33
56340;BME280;42243;42.644;23.366;2023-05-02T07:41:26;94915.66;;;44.89;11.23
56340;BME280;42243;42.644;23.366;2023-05-02T07:43:51;94914.78;;;44.27;12.12
56340;BME280;42243;42.644;23.366;2023-05-02T07:46:17;94935.00;;;44.82;11.39
56340;BME280;42243;42.644;23.366;2023-05-02T07:48:43;94943.41;;;45.83;11.38
56340;BME280;42243;42.644;23.366;2023-05-02T07:53:12;94885.72;;;45.96;10.95
56340;BME280;42243;42.644;23.366;2023-05-02T07:55:37;94926.44;;;47.28;10.41
56340;BME280;42243;42.644;23.366;2023-05-02T07:58:03;94941.41;;;48.59;11.27
56340;BME280;42243;42.644;23.366;2023-05-02T08:00:28;94905.63;;;46.27;13.08
56340;BME280;42243;42.644;23.366;2023-05-02T08:02:54;94910.78;;;44.35;11.50
56340;BME280;42243;42.644;23.366;2023-05-02T08:05:20;94926.59;;;39.83;14.61
56340;BME280;42243;42.644;23.366;2023-05-02T08:07:45;94849.09;;;37.28;17.12
56340;BME280;42243;42.644;23.366;2023-05-02T08:10:11;94892.50;;;42.17;13.37
56340;BME280;42243;42.644;23.366;2023-05-02T08:12:38;94893.78;;;39.80;15.12
56340;BME280;42243;42.644;23.366;2023-05-02T08:15:06;94841.31;;;37.53;16.33
56340;BME280;42243;42.644;23.366;2023-05-02T08:17:32;94857.69;;;33.73;19.64
56340;BME280;42243;42.644;23.366;2023-05-02T08:19:58;94893.25;;;35.09;18.61
56340;BME280;42243;42.644;23.366;2023-05-02T08:22:23;94932.09;;;36.08;18.79
56340;BME280;42243;42.644;23.366;2023-05-02T08:24:49;94810.59;;;33.12;18.96
56340;BME280;42243;42.644;23.366;2023-05-02T08:27:14;94939.41;;;30.30;22.78
56340;BME280;42243;42.644;23.366;2023-05-02T08:29:39;94808.59;;;28.40;24.35
56340;BME280;42243;42.644;23.366;2023-05-02T08:32:05;94837.53;;;28.74;24.04
56340;BME280;42243;42.644;23.366;2023-05-02T08:34:30;94934.63;;;27.62;25.64
56340;BME280;42243;42.644;23.366;2023-05-02T08:36:58;94888.09;;;27.57;25.29
56340;BME280;42243;42.644;23.366;2023-05-02T08:39:23;94867.91;;;26.58;25.68
56340;BME280;42243;42.644;23.366;2023-05-02T08:41:49;94942.31;;;26.89;27.14
56340;BME280;42243;42.644;23.366;2023-05-02T08:44:14;94949.63;;;26.64;26.61
56340;BME280;42243;42.644;23.366;2023-05-02T08:46:40;94938.16;;;25.58;27.84
56340;BME280;42243;42.644;23.366;2023-05-02T08:49:09;94932.16;;;26.15;27.22
56340;BME280;42243;42.644;23.366;2023-05-02T08:51:35;94862.66;;;24.75;28.26
56340;BME280;42243;42.644;23.366;2023-05-02T08:54:01;94900.09;;;24.65;29.04
56340;BME280;42243;42.644;23.366;2023-05-02T08:56:28;94908.06;;;25.29;28.77
56340;BME280;42243;42.644;23.366;2023-05-02T08:58:53;94928.00;;;25.07;28.75
56340;BME280;42243;42.644;23.366;2023-05-02T09:01:22;94927.72;;;25.38;28.57
56340;BME280;42243;42.644;23.366;2023-05-02T09:03:48;94899.13;;;25.14;28.85
56340;BME280;42243;42.644;23.366;2023-05-02T09:06:21;94920.84;;;25.32;28.95
56340;BME280;42243;42.644;23.366;2023-05-02T09:08:52;94928.34;;;23.67;30.22
56340;BME280;42243;42.644;23.366;2023-05-02T09:11:18;94891.03;;;22.45;31.48
56340;BME280;42243;42.644;23.366;2023-05-02T09:13:48;94921.03;;;23.28;31.50
56340;BME280;42243;42.644;23.366;2023-05-02T09:16:21;94917.06;;;23.90;30.40
56340;BME280;42243;42.644;23.366;2023-05-02T09:18:48;94864.97;;;24.58;29.63
56340;BME280;42243;42.644;23.366;2023-05-02T09:21:17;94866.47;;;23.25;30.37
56340;BME280;42243;42.644;23.366;2023-05-02T09:23:45;94815.56;;;22.46;30.87
56340;BME280;42243;42.644;23.366;2023-05-02T09:26:21;94910.16;;;22.83;30.70
56340;BME280;42243;42.644;23.366;2023-05-02T09:28:49;94862.50;;;23.28;31.24
56340;BME280;42243;42.644;23.366;2023-05-02T09:31:19;94862.69;;;23.42;30.10
56340;BME280;42243;42.644;23.366;2023-05-02T09:33:46;94908.03;;;24.36;29.95
56340;BME280;42243;42.644;23.366;2023-05-02T09:36:16;94901.59;;;23.97;29.75
56340;BME280;42243;42.644;23.366;2023-05-02T09:38:43;94899.91;;;24.12;29.39
56340;BME280;42243;42.644;23.366;2023-05-02T09:41:09;94888.84;;;22.01;32.29
56340;BME280;42243;42.644;23.366;2023-05-02T09:43:36;94877.88;;;21.67;32.42
56340;BME280;42243;42.644;23.366;2023-05-02T09:48:29;94851.34;;;23.15;29.95
56340;BME280;42243;42.644;23.366;2023-05-02T09:50:55;94834.84;;;23.24;29.65
56340;BME280;42243;42.644;23.366;2023-05-02T09:53:25;94884.66;;;23.78;29.68
56340;BME280;42243;42.644;23.366;2023-05-02T09:56:04;94892.56;;;23.93;29.62
56340;BME280;42243;42.644;23.366;2023-05-02T09:58:30;94887.13;;;24.14;29.33
56340;BME280;42243;42.644;23.366;2023-05-02T10:00:56;94854.09;;;23.65;28.97
56340;BME280;42243;42.644;23.366;2023-05-02T10:03:23;94870.56;;;22.82;29.74
56340;BME280;42243;42.644;23.366;2023-05-02T10:05:49;94847.34;;;23.28;29.26
56340;BME280;42243;42.644;23.366;2023-05-02T10:08:17;94844.41;;;23.30;28.75
56340;BME280;42243;42.644;23.366;2023-05-02T10:10:51;94882.13;;;23.37;29.33
56340;BME280;42243;42.644;23.366;2023-05-02T10:13:19;94831.63;;;23.32;29.54
56340;BME280;42243;42.644;23.366;2023-05-02T10:15:49;94880.13;;;22.31;30.26
56340;BME280;42243;42.644;23.366;2023-05-02T10:18:45;94827.13;;;23.22;28.34
56340;BME280;42243;42.644;23.366;2023-05-02T10:21:19;94875.94;;;23.57;28.42
56340;BME280;42243;42.644;23.366;2023-05-02T10:23:49;94826.88;;;23.24;27.86
56340;BME280;42243;42.644;23.366;2023-05-02T10:26:17;94835.94;;;23.07;28.77
56340;BME280;42243;42.644;23.366;2023-05-02T10:28:45;94864.63;;;23.26;28.55
56340;BME280;42243;42.644;23.366;2023-05-02T10:31:12;94833.59;;;22.95;28.11
56340;BME280;42243;42.644;23.366;2023-05-02T10:33:38;94869.41;;;23.29;28.27
56340;BME280;42243;42.644;23.366;2023-05-02T10:36:07;94825.38;;;22.66;28.81
56340;BME280;42243;42.644;23.366;2023-05-02T10:38:34;94865.22;;;22.92;28.59
56340;BME280;42243;42.644;23.366;2023-05-02T10:41:05;94804.94;;;22.56;29.03
56340;BME280;42243;42.644;23.366;2023-05-02T10:43:34;94828.50;;;22.99;28.95
56340;BME280;42243;42.644;23.366;2023-05-02T10:46:02;94851.44;;;22.79;28.96
56340;BME280;42243;42.644;23.366;2023-05-02T10:48:28;94859.91;;;22.87;28.93
56340;BME280;42243;42.644;23.366;2023-05-02T10:50:58;94855.13;;;22.84;28.62
56340;BME280;42243;42.644;23.366;2023-05-02T10:53:26;94857.31;;;22.51;29.07
56340;BME280;42243;42.644;23.366;2023-05-02T10:56:12;94855.94;;;22.69;29.25
56340;BME280;42243;42.644;23.366;2023-05-02T10:58:39;94828.03;;;22.82;28.74
56340;BME280;42243;42.644;23.366;2023-05-02T11:03:55;94846.88;;;22.75;28.60
56340;BME280;42243;42.644;23.366;2023-05-02T11:06:21;94818.72;;;22.69;29.01
56340;BME280;42243;42.644;23.366;2023-05-02T11:08:47;94827.75;;;22.73;28.92
56340;BME280;42243;42.644;23.366;2023-05-02T11:14:03;94839.69;;;23.06;28.77
56340;BME280;42243;42.644;23.366;2023-05-02T11:19:26;94788.38;;;22.90;28.52
56340;BME280;42243;42.644;23.366;2023-05-02T11:21:52;94839.94;;;23.05;28.74
56340;BME280;42243;42.644;23.366;2023-05-02T11:24:42;94837.03;;;22.91;29.20
56340;BME280;42243;42.644;23.366;2023-05-02T11:30:09;94773.28;;;22.70;28.59
56340;BME280;42243;42.644;23.366;2023-05-02T11:35:22;94826.91;;;23.08;29.44
56340;BME280;42243;42.644;23.366;2023-05-02T11:37:55;94829.59;;;22.93;28.98
56340;BME280;42243;42.644;23.366;2023-05-02T11:40:22;94824.84;;;22.74;29.07
56340;BME280;42243;42.644;23.366;2023-05-02T11:42:48;94810.53;;;22.60;29.48
56340;BME280;42243;42.644;23.366;2023-05-02T11:45:13;94824.81;;;22.85;29.38
56340;BME280;42243;42.644;23.366;2023-05-02T11:47:40;94686.31;;;21.90;29.52
56340;BME280;42243;42.644;23.366;2023-05-02T11:50:07;94786.78;;;22.94;28.90
56340;BME280;42243;42.644;23.366;2023-05-02T11:52:40;94808.88;;;22.90;29.48
56340;BME280;42243;42.644;23.366;2023-05-02T11:55:07;94804.91;;;22.67;29.66
56340;BME280;42243;42.644;23.366;2023-05-02T11:57:35;94808.97;;;22.33;30.18
56340;BME280;42243;42.644;23.366;2023-05-02T12:00:01;94774.41;;;22.54;30.19
56340;BME280;42243;42.644;23.366;2023-05-02T12:02:37;94788.53;;;22.29;29.70
56340;BME280;42243;42.644;23.366;2023-05-02T12:05:03;94760.06;;;21.93;30.17
56340;BME280;42243;42.644;23.366;2023-05-02T12:10:01;94756.09;;;21.91;31.12
56340;BME280;42243;42.644;23.366;2023-05-02T12:12:27;94747.59;;;21.99;30.49
56340;BME280;42243;42.644;23.366;2023-05-02T12:14:53;94724.78;;;22.08;30.24
56340;BME280;42243;42.644;23.366;2023-05-02T12:17:18;94688.13;;;22.05;30.20
56340;BME280;42243;42.644;23.366;2023-05-02T12:19:44;94729.22;;;22.59;30.21
56340;BME280;42243;42.644;23.366;2023-05-02T12:22:10;94784.31;;;23.18;29.55
56340;BME280;42243;42.644;23.366;2023-05-02T12:24:37;94783.16;;;22.54;30.14
56340;BME280;42243;42.644;23.366;2023-05-02T12:27:13;94782.94;;;22.35;30.11
56340;BME280;42243;42.644;23.366;2023-05-02T12:29:40;94726.09;;;22.06;30.19
56340;BME280;42243;42.644;23.366;2023-05-02T12:32:06;94691.88;;;21.73;30.43
56340;BME280;42243;42.644;23.366;2023-05-02T12:34:32;94704.88;;;21.65;30.23
56340;BME280;42243;42.644;23.366;2023-05-02T12:36:58;94704.34;;;21.57;30.44
56340;BME280;42243;42.644;23.366;2023-05-02T12:42:18;94725.03;;;22.43;29.38
56340;BME280;42243;42.644;23.366;2023-05-02T12:44:45;94739.06;;;22.53;29.35
56340;BME280;42243;42.644;23.366;2023-05-02T12:47:43;94727.03;;;22.82;28.50
56340;BME280;42243;42.644;23.366;2023-05-02T12:50:09;94689.50;;;21.62;30.03
56340;BME280;42243;42.644;23.366;2023-05-02T12:52:51;94745.09;;;22.74;28.81
